Time;durP1;ratioP1;P1;durP2;ratioP2;P2;SDS_P1;SDS_P2;PMS_P1;PMS_P2;Temp;Humidity;BMP_temperature;BMP_pressure;BME280_temperature;BME280_humidity;BME280_pressure;Samples;Min_cycle;Max_cycle;Signal;HPM_P1;HPM_P2
2023/12/27 00:00:21;;;;;;;5.50;3.40;;;;;;;24.60;35.58;100065.03;4985292;28;20538;-44
2023/12/27 00:02:47;;;;;;;5.72;3.40;;;;;;;24.61;35.48;100055.53;4987391;28;20045;-44
2023/12/27 00:05:12;;;;;;;5.60;3.30;;;;;;;24.57;35.65;100048.69;4986761;28;20410;-45
2023/12/27 00:07:38;;;;;;;5.45;3.17;;;;;;;24.58;35.72;100042.66;4987407;28;20101;-44
2023/12/27 00:10:03;;;;;;;5.68;3.30;;;;;;;24.57;35.62;100046.69;4989095;28;20532;-45
2023/12/27 00:12:29;;;;;;;5.18;3.05;;;;;;;24.55;35.55;100040.91;4988426;28;20033;-45
2023/12/27 00:14:54;;;;;;;5.25;3.10;;;;;;;24.56;35.74;100049.94;4986411;28;20019;-45
2023/12/27 00:17:19;;;;;;;5.32;3.20;;;;;;;24.57;35.54;100045.94;4982228;28;20401;-44
2023/12/27 00:19:45;;;;;;;5.70;3.25;;;;;;;24.54;35.64;100042.13;4988441;28;20486;-47
2023/12/27 00:22:10;;;;;;;5.40;3.10;;;;;;;24.54;35.71;100033.88;4987575;28;20040;-46
2023/12/27 00:24:35;;;;;;;5.60;3.00;;;;;;;24.54;35.62;100046.91;4987901;28;20027;-45
2023/12/27 00:27:01;;;;;;;5.38;3.13;;;;;;;24.56;35.59;100049.94;4985345;28;20460;-45
2023/12/27 00:29:26;;;;;;;5.38;3.03;;;;;;;24.55;35.69;100059.47;4985794;28;20088;-44
2023/12/27 00:31:52;;;;;;;5.30;2.90;;;;;;;24.53;35.83;100065.47;4982624;28;20034;-43
2023/12/27 00:34:17;;;;;;;5.15;2.83;;;;;;;24.53;35.55;100057.19;4983236;28;20026;-43
2023/12/27 00:36:42;;;;;;;5.15;2.97;;;;;;;24.55;35.74;100048.41;4983721;28;20033;-44
2023/12/27 00:39:10;;;;;;;4.50;2.38;;;;;;;24.55;35.62;100034.63;4983991;28;20032;-45
2023/12/27 00:41:35;;;;;;;5.28;2.80;;;;;;;24.53;35.60;100040.63;4984503;28;20031;-46
2023/12/27 00:44:01;;;;;;;5.75;2.70;;;;;;;24.53;35.68;100042.63;4983673;28;20033;-45
2023/12/27 00:46:27;;;;;;;5.32;3.05;;;;;;;24.51;35.64;100043.09;5013857;28;20398;-44
2023/12/27 00:48:52;;;;;;;4.90;2.70;;;;;;;24.50;35.70;100041.56;4986839;28;20033;-45
2023/12/27 00:51:19;;;;;;;4.70;2.60;;;;;;;24.52;35.70;100038.34;4983129;28;20081;-45
2023/12/27 00:53:44;;;;;;;5.07;2.80;;;;;;;24.52;35.69;100033.59;5013848;28;20722;-44
2023/12/27 00:56:10;;;;;;;4.50;2.40;;;;;;;24.51;35.38;100034.81;4982646;28;20038;-45
2023/12/27 00:58:35;;;;;;;5.45;2.78;;;;;;;24.52;35.74;100035.59;4987193;28;20076;-44
2023/12/27 01:01:00;;;;;;;5.05;2.70;;;;;;;24.52;35.72;100038.34;4985399;28;20036;-44
2023/12/27 01:03:26;;;;;;;4.30;2.33;;;;;;;24.52;35.61;100030.06;4983946;28;20478;-45
2023/12/27 01:05:51;;;;;;;5.07;2.80;;;;;;;24.51;35.63;100029.31;4983667;28;20038;-44
2023/12/27 01:08:16;;;;;;;5.28;2.53;;;;;;;24.52;35.59;100027.31;4985224;28;20041;-46
2023/12/27 01:10:42;;;;;;;4.65;2.42;;;;;;;24.52;35.65;100032.81;4988598;28;20022;-45
2023/12/27 01:13:07;;;;;;;5.30;2.83;;;;;;;24.50;35.69;100032.53;4987341;28;20018;-45
2023/12/27 01:15:32;;;;;;;5.30;2.60;;;;;;;24.48;35.72;100038.53;4984352;28;20085;-45
2023/12/27 01:17:58;;;;;;;4.82;2.50;;;;;;;24.48;35.59;100041.28;4989215;28;20083;-45
2023/12/27 01:20:23;;;;;;;5.50;2.63;;;;;;;24.48;35.72;100032.25;4988065;28;20088;-45
2023/12/27 01:22:49;;;;;;;4.53;2.25;;;;;;;24.47;35.65;100036.25;5016638;28;20071;-44
2023/12/27 01:25:14;;;;;;;4.70;2.55;;;;;;;24.46;35.72;100029.97;5013215;28;20033;-44
2023/12/27 01:27:40;;;;;;;4.43;2.28;;;;;;;24.46;35.71;100026.47;4983316;28;20038;-44
2023/12/27 01:30:06;;;;;;;4.40;2.30;;;;;;;24.46;35.64;100034.72;4987484;28;20034;-44
2023/12/27 01:32:32;;;;;;;4.13;2.13;;;;;;;24.45;35.71;100033.22;4982216;28;20030;-45
2023/12/27 01:34:57;;;;;;;4.80;2.20;;;;;;;24.46;35.68;100026.47;4985456;28;20281;-47
2023/12/27 01:37:22;;;;;;;4.57;2.22;;;;;;;24.46;35.66;100029.97;4982485;28;20026;-45
2023/12/27 01:39:48;;;;;;;4.38;2.30;;;;;;;24.49;35.52;100028.25;4982825;28;20470;-45
2023/12/27 01:42:14;;;;;;;4.50;2.20;;;;;;;24.48;35.63;100026.75;4984441;28;20109;-45
2023/12/27 01:44:39;;;;;;;4.40;2.20;;;;;;;24.46;35.64;100041.00;4986555;28;20034;-45
2023/12/27 01:47:05;;;;;;;4.30;2.00;;;;;;;24.46;35.74;100041.00;4983075;28;20022;-44
2023/12/27 01:49:30;;;;;;;4.28;1.92;;;;;;;24.48;35.78;100043.28;4981470;28;20065;-45
2023/12/27 01:51:55;;;;;;;3.80;1.88;;;;;;;24.47;35.67;100036.25;4987183;28;20037;-44
2023/12/27 01:54:21;;;;;;;4.32;2.08;;;;;;;24.47;35.60;100041.78;4983679;28;20030;-44
2023/12/27 01:56:46;;;;;;;4.40;2.05;;;;;;;24.44;35.45;100048.25;4981554;28;20545;-43
2023/12/27 01:59:12;;;;;;;4.05;1.90;;;;;;;24.43;35.69;100030.94;4986876;28;20033;-45
2023/12/27 02:01:38;;;;;;;4.30;2.00;;;;;;;24.43;35.84;100041.22;4980721;28;20035;-45
2023/12/27 02:04:03;;;;;;;4.43;2.10;;;;;;;24.43;35.71;100036.44;4990072;28;20084;-45
2023/12/27 02:06:28;;;;;;;3.60;1.83;;;;;;;24.43;35.79;100030.16;4982183;28;20073;-45
2023/12/27 02:08:54;;;;;;;3.97;1.90;;;;;;;24.44;35.79;100031.69;4981679;28;20031;-46
2023/12/27 02:11:19;;;;;;;3.83;1.80;;;;;;;24.43;35.71;100024.66;5004346;28;20041;-45
2023/12/27 02:13:44;;;;;;;4.20;1.95;;;;;;;24.42;35.31;100028.66;4980585;28;20026;-45
2023/12/27 02:16:10;;;;;;;4.53;1.83;;;;;;;24.43;35.65;100036.44;4980774;28;20040;-44
2023/12/27 02:18:35;;;;;;;4.25;1.85;;;;;;;24.43;35.67;100030.94;5002724;28;20121;-45
2023/12/27 02:21:01;;;;;;;4.22;1.60;;;;;;;24.45;35.74;100033.22;4998498;28;20022;-44
2023/12/27 02:23:27;;;;;;;3.40;1.63;;;;;;;24.43;35.72;100039.22;4990524;28;20034;-49
2023/12/27 02:25:53;;;;;;;4.00;1.80;;;;;;;24.44;35.80;100035.22;4998051;28;20062;-46
2023/12/27 02:28:18;;;;;;;3.95;1.85;;;;;;;24.41;35.75;100032.66;4999431;28;20027;-46
2023/12/27 02:30:43;;;;;;;3.95;1.70;;;;;;;24.41;35.76;100027.13;4983288;28;20071;-45
2023/12/27 02:33:09;;;;;;;4.00;1.90;;;;;;;24.39;35.74;100030.38;4990011;28;20029;-45
2023/12/27 02:35:34;;;;;;;4.72;1.88;;;;;;;24.39;35.81;100014.56;4983082;28;20026;-45
2023/12/27 02:37:59;;;;;;;3.65;1.63;;;;;;;24.41;35.89;100018.84;4980851;28;20584;-46
2023/12/27 02:40:25;;;;;;;3.67;1.75;;;;;;;24.41;35.67;100013.34;4982462;28;20022;-46
2023/12/27 02:42:50;;;;;;;3.90;1.70;;;;;;;24.40;35.82;100012.56;4982459;28;20482;-45
2023/12/27 02:45:15;;;;;;;3.72;1.80;;;;;;;24.41;35.70;100008.56;4984500;28;20027;-45
2023/12/27 02:47:41;;;;;;;3.15;1.50;;;;;;;24.42;35.75;100006.56;4982672;28;20096;-47
2023/12/27 02:50:07;;;;;;;3.67;1.60;;;;;;;24.43;35.62;99999.81;4984308;28;20434;-44
2023/12/27 02:52:32;;;;;;;3.88;1.60;;;;;;;24.44;35.60;100004.09;4980574;28;20027;-46
2023/12/27 02:54:57;;;;;;;3.97;1.70;;;;;;;24.43;35.76;99997.06;4985745;28;20527;-46
2023/12/27 02:57:23;;;;;;;3.53;1.67;;;;;;;24.42;35.69;99990.78;4981961;28;20031;-46
2023/12/27 02:59:48;;;;;;;3.42;1.60;;;;;;;24.42;35.65;99979.75;4982416;28;20481;-45
2023/12/27 03:02:14;;;;;;;4.00;1.50;;;;;;;24.42;35.68;99982.50;4980107;28;20053;-45
2023/12/27 03:04:39;;;;;;;3.65;1.60;;;;;;;24.41;35.87;99992.03;4986733;28;20036;-45
2023/12/27 03:07:04;;;;;;;3.72;1.58;;;;;;;24.43;35.74;99999.81;4983681;28;20533;-45
2023/12/27 03:09:30;;;;;;;3.50;1.52;;;;;;;24.42;35.93;100001.81;4985704;28;20022;-45
2023/12/27 03:11:56;;;;;;;3.47;1.60;;;;;;;24.44;35.68;99993.06;4984503;28;20018;-44
2023/12/27 03:14:21;;;;;;;3.42;1.58;;;;;;;24.41;35.91;99989.25;4987211;28;20011;-45
2023/12/27 03:16:47;;;;;;;3.28;1.60;;;;;;;24.41;35.85;99991.25;4982150;28;20490;-45
2023/12/27 03:19:12;;;;;;;3.60;1.60;;;;;;;24.44;35.86;99980.03;4982215;28;20092;-44
2023/12/27 03:21:37;;;;;;;3.20;1.48;;;;;;;24.45;35.78;99978.78;4983345;28;20037;-46
2023/12/27 03:24:03;;;;;;;3.38;1.52;;;;;;;24.47;35.77;99975.56;4981134;28;20015;-46
2023/12/27 03:26:28;;;;;;;2.97;1.40;;;;;;;24.42;35.67;99974.22;4978808;28;20031;-48
2023/12/27 03:28:53;;;;;;;3.97;1.50;;;;;;;24.40;35.79;99976.72;4981686;28;20026;-44
2023/12/27 03:31:19;;;;;;;3.58;1.45;;;;;;;24.41;35.68;99977.47;4985359;28;20032;-45
2023/12/27 03:33:44;;;;;;;3.83;1.30;;;;;;;24.41;35.44;99971.94;4981827;28;20027;-46
2023/12/27 03:36:09;;;;;;;3.35;1.48;;;;;;;24.41;35.34;99977.47;4983137;28;20022;-46
2023/12/27 03:38:35;;;;;;;3.00;1.40;;;;;;;24.39;35.41;99969.66;4974890;28;20049;-45
2023/12/27 03:41:01;;;;;;;3.47;1.40;;;;;;;24.39;35.42;99967.66;4979486;28;20028;-44
2023/12/27 03:43:26;;;;;;;3.90;1.60;;;;;;;24.42;35.46;99968.72;4981493;28;20027;-45
2023/12/27 03:45:54;;;;;;;3.38;1.38;;;;;;;24.42;35.41;99967.94;4977249;28;20026;-45
2023/12/27 03:48:20;;;;;;;4.72;1.40;;;;;;;24.43;35.35;99963.94;4978188;28;20035;-45
2023/12/27 03:50:45;;;;;;;3.45;1.50;;;;;;;24.46;35.14;99957.47;4981304;28;20439;-45
2023/12/27 03:53:10;;;;;;;2.92;1.45;;;;;;;24.46;35.22;99946.44;4980883;28;20021;-44
2023/12/27 03:55:36;;;;;;;3.75;1.50;;;;;;;24.45;35.22;99940.16;4981036;28;20508;-45
2023/12/27 03:58:01;;;;;;;3.78;1.58;;;;;;;24.47;35.28;99943.19;4985055;28;20084;-45
2023/12/27 04:00:26;;;;;;;3.53;1.40;;;;;;;24.48;35.21;99939.19;4984456;28;20031;-45
2023/12/27 04:02:52;;;;;;;3.88;1.40;;;;;;;24.51;35.29;99934.72;4979128;28;20041;-44
2023/12/27 04:05:17;;;;;;;3.35;1.50;;;;;;;24.51;35.26;99940.25;4979577;28;20018;-45
2023/12/27 04:07:42;;;;;;;3.90;1.77;;;;;;;24.51;35.44;99934.72;4979267;28;20029;-45
2023/12/27 04:10:08;;;;;;;4.05;1.60;;;;;;;24.51;35.37;99937.47;4982425;28;20056;-44
2023/12/27 04:12:33;;;;;;;4.55;1.50;;;;;;;24.49;35.46;99940.72;4981967;28;20086;-44
2023/12/27 04:14:59;;;;;;;4.07;1.60;;;;;;;24.55;35.43;99943.56;4981576;28;20033;-45
2023/12/27 04:17:25;;;;;;;4.32;1.50;;;;;;;24.57;35.31;99930.03;4979974;28;20040;-45
2023/12/27 04:19:50;;;;;;;2.78;1.40;;;;;;;24.59;35.36;99938.56;4983444;28;20065;-45
2023/12/27 04:22:16;;;;;;;3.60;1.40;;;;;;;24.60;35.32;99934.56;4980124;28;20109;-46
2023/12/27 04:24:41;;;;;;;3.17;1.40;;;;;;;24.56;35.51;99928.50;4983012;28;20028;-45
2023/12/27 04:27:06;;;;;;;3.75;1.50;;;;;;;24.53;35.58;99935.75;4980685;28;20415;-45
2023/12/27 04:29:32;;;;;;;3.72;1.40;;;;;;;24.57;35.37;99941.06;4983612;28;20031;-45
2023/12/27 04:31:57;;;;;;;3.05;1.30;;;;;;;24.55;35.53;99932.50;4983180;28;20025;-45
2023/12/27 04:34:23;;;;;;;5.38;1.40;;;;;;;24.60;35.61;99924.28;4979561;28;20019;-47
2023/12/27 04:36:48;;;;;;;5.15;1.30;;;;;;;24.66;35.49;99933.41;4983411;28;20497;-43
2023/12/27 04:39:13;;;;;;;5.95;1.35;;;;;;;24.67;35.74;99934.16;4987065;28;20030;-46
2023/12/27 04:41:39;;;;;;;4.20;1.35;;;;;;;24.71;35.66;99945.75;4982081;28;20048;-44
2023/12/27 04:44:05;;;;;;;4.38;1.48;;;;;;;24.68;36.72;99947.47;4987472;28;20559;-41
2023/12/27 04:46:30;;;;;;;3.03;1.30;;;;;;;24.70;36.63;99950.50;4983106;28;20026;-41
2023/12/27 04:48:56;;;;;;;4.70;1.30;;;;;;;24.72;36.57;99947.25;4985303;28;20481;-43
2023/12/27 04:51:21;;;;;;;3.80;1.20;;;;;;;24.73;36.73;99944.03;4987118;28;20031;-52
2023/12/27 04:53:46;;;;;;;4.38;1.60;;;;;;;24.73;36.54;99941.25;4984373;28;20158;-48
2023/12/27 04:56:12;;;;;;;3.47;1.30;;;;;;;24.74;36.74;99933.75;4982788;28;20035;-44
2023/12/27 04:58:37;;;;;;;3.85;1.17;;;;;;;24.76;36.48;99936.03;4982637;28;20023;-42
2023/12/27 05:01:04;;;;;;;5.50;1.33;;;;;;;24.76;36.40;99934.00;4985187;28;20474;-41
2023/12/27 05:03:30;;;;;;;3.35;1.33;;;;;;;24.78;36.45;99925.25;4990904;28;20054;-41
2023/12/27 05:05:55;;;;;;;4.35;1.25;;;;;;;24.81;36.15;99918.72;4988314;28;20142;-42
2023/12/27 05:08:20;;;;;;;7.75;1.63;;;;;;;24.82;36.22;99917.50;4989639;28;20126;-47
2023/12/27 05:10:46;;;;;;;5.72;1.48;;;;;;;24.84;36.22;99912.25;4987821;28;20034;-45
2023/12/27 05:13:11;;;;;;;4.65;1.40;;;;;;;24.87;36.17;99928.59;4983131;28;20057;-48
2023/12/27 05:15:37;;;;;;;16.15;1.55;;;;;;;24.85;36.29;99928.31;4986534;28;20026;-43
2023/12/27 05:18:03;;;;;;;4.55;1.35;;;;;;;24.88;36.00;99929.38;4982009;28;20033;-41
2023/12/27 05:20:28;;;;;;;7.75;1.58;;;;;;;24.87;36.12;99920.31;4987948;28;20037;-44
2023/12/27 05:22:54;;;;;;;2.58;1.10;;;;;;;24.89;36.11;99922.59;4981188;28;20042;-44
2023/12/27 05:25:19;;;;;;;3.47;1.20;;;;;;;24.93;36.09;99918.38;4987487;28;20022;-43
2023/12/27 05:27:44;;;;;;;3.03;1.20;;;;;;;24.90;36.09;99910.31;4983517;28;20031;-44
2023/12/27 05:30:10;;;;;;;3.85;1.50;;;;;;;24.89;36.12;99915.06;4990611;28;20027;-46
2023/12/27 05:32:36;;;;;;;5.53;1.50;;;;;;;24.88;36.07;99915.56;4984205;28;20093;-44
2023/12/27 05:35:02;;;;;;;4.38;1.27;;;;;;;24.89;36.07;99911.56;4987159;28;20022;-45
2023/12/27 05:37:27;;;;;;;3.80;1.40;;;;;;;24.91;36.25;99909.81;4984648;28;20030;-44
2023/12/27 05:39:53;;;;;;;3.75;1.30;;;;;;;24.95;35.91;99915.16;4983437;28;20022;-46
2023/12/27 05:42:18;;;;;;;2.03;1.02;;;;;;;24.95;36.25;99898.59;4985101;28;20038;-44
2023/12/27 05:44:43;;;;;;;2.50;1.20;;;;;;;24.95;36.02;99896.59;4980734;28;20027;-49
2023/12/27 05:47:09;;;;;;;2.60;1.17;;;;;;;24.96;36.07;99889.81;4979054;28;20041;-44
2023/12/27 05:49:34;;;;;;;4.95;1.33;;;;;;;24.89;36.12;99892.97;4981195;28;20054;-44
2023/12/27 05:52:00;;;;;;;4.03;1.25;;;;;;;24.95;36.21;99891.06;4980990;28;20029;-47
2023/12/27 05:54:27;;;;;;;4.22;1.27;;;;;;;24.94;36.16;99889.56;4979388;28;20042;-42
2023/12/27 05:56:53;;;;;;;3.47;1.40;;;;;;;24.94;35.94;99897.84;4982104;28;20492;-43
2023/12/27 05:59:18;;;;;;;5.50;1.20;;;;;;;24.91;36.21;99895.25;4981857;28;20034;-48
2023/12/27 06:01:47;;;;;;;3.72;1.40;;;;;;;24.95;36.02;99893.84;4983320;28;20026;-51
2023/12/27 06:04:14;;;;;;;4.38;1.38;;;;;;;24.95;36.20;99898.59;4980835;28;20023;-48
2023/12/27 06:06:40;;;;;;;3.53;1.20;;;;;;;24.95;36.16;99899.34;4978715;28;20034;-42
2023/12/27 06:09:05;;;;;;;2.85;1.30;;;;;;;24.96;36.14;99911.91;4978437;28;20030;-50
2023/12/27 06:11:30;;;;;;;3.47;1.20;;;;;;;24.98;36.39;99908.66;4980649;28;20015;-47
2023/12/27 06:13:56;;;;;;;3.65;1.40;;;;;;;24.98;36.30;99914.94;4981965;28;20025;-49
2023/12/27 06:16:21;;;;;;;4.50;1.27;;;;;;;24.98;36.34;99925.25;4982828;28;20038;-49
2023/12/27 06:18:47;;;;;;;3.20;1.20;;;;;;;24.99;36.24;99915.69;4981750;28;20474;-50
2023/12/27 06:21:12;;;;;;;3.22;1.17;;;;;;;25.00;36.19;99906.91;4978572;28;20041;-44
2023/12/27 06:23:37;;;;;;;3.22;1.20;;;;;;;25.04;36.28;99906.69;4979768;28;20027;-44
2023/12/27 06:26:03;;;;;;;3.22;1.30;;;;;;;25.03;36.18;99894.91;4980606;28;20022;-44
2023/12/27 06:28:28;;;;;;;4.53;1.30;;;;;;;25.02;36.08;99893.38;4981007;28;20390;-44
2023/12/27 06:30:54;;;;;;;3.90;1.40;;;;;;;24.98;35.90;99898.34;4980942;28;20030;-44
2023/12/27 06:33:19;;;;;;;4.40;1.38;;;;;;;24.97;35.67;99901.63;4981857;28;20018;-44
2023/12/27 06:35:44;;;;;;;2.63;1.10;;;;;;;24.91;35.64;99898.78;4983663;28;20112;-45
2023/12/27 06:38:10;;;;;;;4.25;1.23;;;;;;;24.93;35.70;99909.34;4981274;28;20033;-44
2023/12/27 06:40:35;;;;;;;4.72;1.27;;;;;;;24.90;35.68;99905.53;4984333;28;20469;-44
2023/12/27 06:43:00;;;;;;;3.47;1.38;;;;;;;24.91;35.47;99895.25;4982583;28;20035;-44
2023/12/27 06:45:26;;;;;;;3.40;1.40;;;;;;;24.87;35.41;99889.94;4982226;28;20036;-44
2023/12/27 06:47:51;;;;;;;4.47;1.55;;;;;;;24.88;35.40;99888.69;4979303;28;20026;-44
2023/12/27 06:50:17;;;;;;;3.47;1.40;;;;;;;24.86;35.57;99890.44;4978214;28;20057;-44
2023/12/27 06:52:42;;;;;;;2.70;1.27;;;;;;;24.80;35.82;99898.66;4983151;28;20018;-43
2023/12/27 06:55:07;;;;;;;4.43;1.40;;;;;;;24.77;35.79;99893.38;4982112;28;20034;-43
2023/12/27 06:57:33;;;;;;;3.20;1.30;;;;;;;24.75;35.64;99893.09;4980863;28;20251;-43
2023/12/27 06:59:58;;;;;;;5.07;1.50;;;;;;;24.64;34.92;99899.22;4988347;28;20101;-45
2023/12/27 07:02:23;;;;;;;7.57;2.17;;;;;;;24.55;34.19;99910.44;4982206;28;20089;-45
2023/12/27 07:04:49;;;;;;;5.95;1.88;;;;;;;24.56;34.06;99893.41;4982928;28;20026;-43
2023/12/27 07:07:14;;;;;;;8.10;1.90;;;;;;;24.58;34.52;99888.13;4980714;28;20031;-44
2023/12/27 07:09:40;;;;;;;6.03;2.10;;;;;;;24.59;34.66;99878.59;4982338;28;20018;-45
2023/12/27 07:12:05;;;;;;;7.22;2.20;;;;;;;24.65;34.74;99873.16;4983677;28;20038;-44
2023/12/27 07:14:30;;;;;;;7.07;1.90;;;;;;;24.63;34.81;99870.88;4981084;28;20474;-44
2023/12/27 07:16:56;;;;;;;6.72;2.15;;;;;;;24.62;34.87;99893.44;4979273;28;20018;-43
2023/12/27 07:19:21;;;;;;;9.25;2.00;;;;;;;24.62;34.95;99894.19;4983052;28;20564;-43
2023/12/27 07:21:48;;;;;;;4.82;1.80;;;;;;;24.66;34.97;99902.28;4982950;28;20026;-44
2023/12/27 07:24:13;;;;;;;4.80;1.70;;;;;;;24.58;34.85;99892.91;4983188;28;20093;-43
2023/12/27 07:26:38;;;;;;;4.85;1.77;;;;;;;24.58;34.80;99903.97;4983443;28;20489;-45
2023/12/27 07:29:04;;;;;;;4.85;1.67;;;;;;;24.60;34.85;99898.69;4982100;28;20025;-45
2023/12/27 07:31:30;;;;;;;5.68;2.00;;;;;;;24.63;34.77;99906.00;4983556;28;20030;-44
2023/12/27 07:33:55;;;;;;;4.40;1.83;;;;;;;24.64;34.78;99919.31;4982655;28;20025;-44
2023/12/27 07:36:21;;;;;;;4.90;1.80;;;;;;;24.64;34.75;99915.78;4981248;28;20133;-46
2023/12/27 07:38:46;;;;;;;5.18;1.75;;;;;;;24.64;34.61;99918.56;4978961;28;20037;-44
2023/12/27 07:41:12;;;;;;;6.97;1.70;;;;;;;24.65;34.89;99931.88;4980633;28;20031;-44
2023/12/27 07:43:37;;;;;;;4.70;1.60;;;;;;;24.65;34.49;99926.34;4983819;28;20029;-44
2023/12/27 07:46:02;;;;;;;4.22;1.70;;;;;;;24.63;34.55;99928.06;4984274;28;20433;-44
2023/12/27 07:48:28;;;;;;;6.13;1.83;;;;;;;24.64;34.48;99930.34;4979082;28;20046;-44
2023/12/27 07:50:55;;;;;;;4.00;1.60;;;;;;;24.62;34.76;99919.03;4982452;28;20023;-44
2023/12/27 07:53:21;;;;;;;4.73;1.57;;;;;;;24.62;34.62;99894.19;4981418;28;20019;-46
2023/12/27 07:55:46;;;;;;;4.80;1.83;;;;;;;24.66;34.69;99871.91;4982576;28;20365;-44
2023/12/27 07:58:11;;;;;;;7.78;2.17;;;;;;;24.73;34.54;99880.53;4982528;28;20049;-42
2023/12/27 08:00:37;;;;;;;10.73;2.17;;;;;;;24.72;34.48;99883.78;4987387;28;20030;-44
2023/12/27 08:03:08;;;;;;;7.78;1.95;;;;;;;24.69;34.33;99882.75;4984371;28;20483;-44
2023/12/27 08:05:36;;;;;;;8.40;2.13;;;;;;;24.66;34.27;99885.72;4984762;28;20026;-44
2023/12/27 08:08:03;;;;;;;5.35;1.85;;;;;;;24.67;34.18;99882.47;4981122;28;20158;-43
2023/12/27 08:10:28;;;;;;;7.47;1.90;;;;;;;24.68;34.15;99886.00;4991515;28;20108;-43
2023/12/27 08:12:53;;;;;;;6.22;1.90;;;;;;;24.68;34.32;99881.22;4985174;28;20034;-44
2023/12/27 08:15:19;;;;;;;6.03;1.90;;;;;;;24.67;34.13;99885.22;4986050;28;20642;-41
2023/12/27 08:17:44;;;;;;;5.32;1.83;;;;;;;24.68;34.24;99886.75;4987890;28;20081;-42
2023/12/27 08:20:10;;;;;;;5.03;1.83;;;;;;;24.69;34.23;99887.50;4987442;28;20030;-44
2023/12/27 08:22:35;;;;;;;5.05;1.90;;;;;;;24.71;34.17;99879.50;4990042;28;20101;-40
2023/12/27 08:25:01;;;;;;;6.88;2.13;;;;;;;24.70;34.10;99883.50;4983638;28;20114;-41
2023/12/27 08:27:26;;;;;;;4.15;1.65;;;;;;;24.71;34.13;99894.06;4980700;28;20034;-42
2023/12/27 08:29:51;;;;;;;4.38;1.80;;;;;;;24.74;34.18;99897.84;4988367;28;20026;-42
2023/12/27 08:32:17;;;;;;;5.53;1.65;;;;;;;24.75;34.17;99890.34;4983608;28;20030;-43
2023/12/27 08:34:42;;;;;;;3.80;1.50;;;;;;;24.71;34.12;99880.25;4985662;28;20022;-42
2023/12/27 08:37:07;;;;;;;5.35;1.90;;;;;;;24.76;34.29;99886.31;4985208;28;20041;-42
2023/12/27 08:39:33;;;;;;;3.65;1.40;;;;;;;24.74;34.06;99875.78;4986401;28;20432;-43
2023/12/27 08:41:58;;;;;;;4.20;1.60;;;;;;;24.75;34.08;99874.53;4989500;28;20026;-43
2023/12/27 08:44:24;;;;;;;4.65;1.70;;;;;;;24.75;34.12;99874.53;4982937;28;20773;-44
2023/12/27 08:46:49;;;;;;;4.60;1.67;;;;;;;24.73;34.13;99871.50;4988262;28;20107;-42
2023/12/27 08:49:14;;;;;;;4.55;1.67;;;;;;;24.64;34.44;99866.13;4985836;28;20030;-44
2023/12/27 08:51:40;;;;;;;7.15;2.17;;;;;;;24.70;34.68;99866.94;4983723;28;20026;-43
2023/12/27 08:54:05;;;;;;;7.25;1.90;;;;;;;24.62;34.51;99866.59;4982232;28;20026;-43
2023/12/27 08:56:30;;;;;;;7.68;1.95;;;;;;;24.64;34.68;99875.16;4987761;28;20076;-43
2023/12/27 08:58:56;;;;;;;7.38;2.03;;;;;;;24.66;34.43;99871.91;4984322;28;20048;-42
2023/12/27 09:01:21;;;;;;;5.57;1.70;;;;;;;24.66;34.34;99863.63;4982233;28;20042;-42
2023/12/27 09:03:48;;;;;;;5.80;1.90;;;;;;;24.65;34.43;99851.06;4984136;28;20030;-42
2023/12/27 09:06:14;;;;;;;6.38;2.05;;;;;;;24.66;34.35;99850.59;4981823;28;20037;-41
2023/12/27 09:08:39;;;;;;;8.95;2.15;;;;;;;24.75;34.67;99863.50;4985050;28;20026;-47
2023/12/27 09:11:04;;;;;;;8.75;1.83;;;;;;;24.68;34.77;99861.16;4980567;28;20026;-45
2023/12/27 09:13:30;;;;;;;5.60;1.70;;;;;;;24.68;34.77;99874.94;4980051;28;20026;-44
2023/12/27 09:15:55;;;;;;;6.60;2.00;;;;;;;24.68;34.53;99902.53;4983008;28;20022;-44
2023/12/27 09:18:21;;;;;;;4.72;1.80;;;;;;;24.68;34.80;99908.06;4982099;28;20077;-41
2023/12/27 09:20:46;;;;;;;6.45;1.70;;;;;;;24.69;34.53;99898.53;4984346;28;20076;-42
2023/12/27 09:23:11;;;;;;;5.53;1.85;;;;;;;24.71;34.54;99891.31;4983271;28;20495;-44
2023/12/27 09:25:37;;;;;;;5.03;1.75;;;;;;;24.74;34.37;99878.53;4979353;28;20033;-43
2023/12/27 09:28:02;;;;;;;4.65;1.75;;;;;;;24.79;34.60;99888.09;4983434;28;20089;-46
2023/12/27 09:30:28;;;;;;;6.20;1.92;;;;;;;24.84;34.48;99873.59;4981903;28;20019;-42
2023/12/27 09:32:53;;;;;;;6.05;1.98;;;;;;;24.89;34.24;99879.19;4984248;28;20517;-45
2023/12/27 09:35:19;;;;;;;4.38;1.83;;;;;;;24.83;34.27;99888.63;4982447;28;20030;-49
2023/12/27 09:37:44;;;;;;;5.60;2.33;;;;;;;24.82;34.33;99884.38;4981832;28;20076;-43
2023/12/27 09:40:10;;;;;;;8.38;2.00;;;;;;;24.84;34.31;99881.88;4982205;28;20030;-44
2023/12/27 09:42:35;;;;;;;4.97;1.83;;;;;;;24.82;34.24;99889.88;4979808;28;20035;-43
2023/12/27 09:45:00;;;;;;;4.88;2.00;;;;;;;24.85;34.38;99886.91;5010478;28;20069;-49
2023/12/27 09:47:26;;;;;;;5.47;2.03;;;;;;;24.85;34.10;99878.63;4979377;28;20031;-44
2023/12/27 09:49:54;;;;;;;5.25;1.80;;;;;;;24.85;34.19;99870.34;4983655;28;20026;-44
2023/12/27 09:52:19;;;;;;;4.78;1.90;;;;;;;24.82;33.99;99857.50;4992644;28;20054;-51
2023/12/27 09:54:45;;;;;;;5.32;1.90;;;;;;;24.80;34.25;99857.25;4976692;28;20018;-44
2023/12/27 09:57:10;;;;;;;4.85;1.70;;;;;;;24.76;34.26;99850.44;4985480;28;20026;-41
2023/12/27 09:59:40;;;;;;;4.50;1.85;;;;;;;24.79;34.25;99850.19;4995399;28;20026;-41
2023/12/27 10:02:07;;;;;;;4.25;1.88;;;;;;;24.85;34.20;99848.25;4982235;28;20059;-43
2023/12/27 10:04:42;;;;;;;5.03;1.92;;;;;;;24.87;33.26;99843.00;4982524;28;20537;-41
2023/12/27 10:07:07;;;;;;;5.70;2.00;;;;;;;24.75;33.94;99837.88;4982977;28;20035;-43
2023/12/27 10:09:33;;;;;;;5.68;2.22;;;;;;;24.72;33.75;99836.84;4989157;28;20661;-45
2023/12/27 10:11:58;;;;;;;7.47;2.33;;;;;;;24.72;33.83;99821.06;4985079;28;20029;-42
2023/12/27 10:14:24;;;;;;;4.53;2.22;;;;;;;24.71;33.07;99824.28;5012831;28;20109;-42
2023/12/27 10:16:49;;;;;;;4.25;2.10;;;;;;;24.68;33.47;99819.75;4967259;28;20034;-42
2023/12/27 10:19:38;;;;;;;5.43;2.42;;;;;;;24.61;32.97;99812.66;4980278;28;20031;-44
2023/12/27 10:22:03;;;;;;;;;;;;;;;24.59;33.02;99808.84;4984892;28;20125;-42
2023/12/27 10:24:29;;;;;;;5.00;2.53;;;;;;;24.61;33.06;99792.56;4979517;28;20404;-44
2023/12/27 10:26:57;;;;;;;5.20;2.50;;;;;;;24.68;32.93;99783.88;5011846;28;20447;-42
2023/12/27 10:29:23;;;;;;;4.53;2.20;;;;;;;24.75;32.77;99772.41;4981142;28;20066;-42
2023/12/27 10:31:48;;;;;;;5.07;2.97;;;;;;;24.82;32.94;99763.66;4985198;28;20144;-42
2023/12/27 10:34:14;;;;;;;6.90;4.20;;;;;;;24.85;32.75;99770.97;4983108;28;20034;-41
2023/12/27 10:36:42;;;;;;;8.30;5.97;;;;;;;24.87;32.98;99776.00;5016522;28;20037;-42
2023/12/27 10:39:09;;;;;;;8.52;6.80;;;;;;;24.92;32.89;99765.00;4981232;28;20021;-44
2023/12/27 10:41:34;;;;;;;10.93;8.70;;;;;;;24.94;32.80;99762.53;4986507;28;20117;-43
2023/12/27 10:44:04;;;;;;;10.10;9.00;;;;;;;24.92;32.89;99751.19;4981788;28;20589;-41
2023/12/27 10:46:31;;;;;;;10.93;9.80;;;;;;;24.94;32.95;99751.50;4985220;28;20054;-41
2023/12/27 10:48:56;;;;;;;11.45;10.27;;;;;;;24.94;33.15;99747.94;4982750;28;20049;-44
2023/12/27 10:51:21;;;;;;;12.48;11.18;;;;;;;24.89;33.04;99745.88;4962508;28;20054;-42
2023/12/27 10:53:47;;;;;;;11.48;10.27;;;;;;;24.82;32.78;99738.81;4969196;28;20021;-42
2023/12/27 10:56:12;;;;;;;11.37;10.17;;;;;;;24.83;32.33;99726.50;4318019;28;10000418;-42
2023/12/27 10:58:38;;;;;;;10.60;9.27;;;;;;;24.86;32.64;99725.53;4990984;28;20291;-42
2023/12/27 11:01:04;;;;;;;9.93;8.60;;;;;;;24.84;32.83;99733.56;4994645;28;20046;-43
2023/12/27 11:03:30;;;;;;;9.80;8.65;;;;;;;24.86;32.54;99725.53;4663045;28;9999929;-48
2023/12/27 11:05:57;;;;;;;11.18;8.73;;;;;;;24.84;32.65;99719.00;4999214;28;20033;-46
2023/12/27 11:08:22;;;;;;;10.07;7.53;;;;;;;24.86;32.86;99720.00;4979529;28;20659;-43
2023/12/27 11:10:48;;;;;;;9.90;7.45;;;;;;;24.91;32.87;99721.31;4639177;28;10001253;-42
2023/12/27 11:13:14;;;;;;;8.95;7.50;;;;;;;24.94;33.12;99703.75;4981107;28;20060;-46
2023/12/27 11:15:44;;;;;;;14.32;12.27;;;;;;;24.96;33.01;99710.34;4993653;28;20043;-48
2023/12/27 11:18:09;;;;;;;17.50;14.48;;;;;;;24.94;33.10;99699.03;4978650;28;20718;-47
2023/12/27 11:20:35;;;;;;;20.83;17.58;;;;;;;24.98;33.02;99693.28;4963142;28;20490;-40
2023/12/27 11:23:00;;;;;;;20.23;18.05;;;;;;;24.99;33.21;99700.28;4967305;28;20037;-47